Latest Weather Observations for Cleve Airport

IDS60801

Issued at 7:01 am CDT Tuesday 7 December 2021 (issued every 10 minutes, with the page automatically refreshed every 10 minutes)

About weather observations | Map of weather stations | Latest weather observations for SA | Other Formats
Station Details ID: 018116 Name: CLEVE AERODROME Lat: -33.71 Lon: 136.50 Height: 175.0 m
Data from the previous 72 hours. | See also: Recent months at Cleve Airport
Date/Time
CDT
Temp
°C
App
Temp
°C
Dew
Point
°C
Rel
Hum
%
Delta-T
°C
Wind Press
QNH
hPa
Press
MSL
hPa
Rain since
9am
mm
Dir  Spd
km/h
Gust
km/h
Spd
kts
Gust
kts
07/07:00am 12.9 9.9 12.0 94 0.5 SSW 19 24 10 13 1016.3 1015.7 0.2
07/06:30am 12.8 9.8 11.9 94 0.5 SSW 19 26 10 14 1016.0 1015.4 0.2
07/06:00am 12.6 10.7 11.7 94 0.5 SSW 13 19 7 10 1015.8 1015.2 0.0
07/05:30am 12.8 10.0 11.2 90 0.8 SW 17 22 9 12 1015.6 1015.0 0.0
07/05:00am 13.3 10.3 10.8 85 1.3 SSW 17 22 9 12 1015.3 1014.7 0.0
07/04:30am 13.3 10.2 10.3 82 1.6 SW 17 24 9 13 1015.2 1014.6 0.0
07/04:00am 13.2 10.7 9.6 79 1.9 SW 13 19 7 10 1015.1 1014.5 0.0
07/03:30am 13.1 10.5 9.4 78 1.9 SW 13 17 7 9 1015.1 1014.5 0.0
07/03:00am 12.5 10.2 9.0 79 1.8 WSW 11 13 6 7 1015.2 1014.6 0.0
07/02:30am 12.2 9.4 8.7 79 1.8 WSW 13 15 7 8 1015.2 1014.6 0.0
07/02:00am 13.0 10.2 8.7 75 2.2 SW 13 19 7 10 1015.5 1014.9 0.0
07/01:30am 13.0 9.9 8.7 75 2.2 SW 15 19 8 10 1015.6 1015.0 0.0
07/01:00am 13.5 10.4 8.8 73 2.4 SW 15 20 8 11 1015.8 1015.2 0.0
07/12:30am 12.8 10.0 8.5 75 2.2 SW 13 17 7 9 1016.0 1015.4 0.0
07/12:00am 12.8 10.0 8.5 75 2.2 WSW 13 15 7 8 1016.0 1015.4 0.0
 
Date/Time
CDT
Temp
°C
App
Temp
°C
Dew
Point
°C
Rel
Hum
%
Delta-T
°C
Wind Press
QNH
hPa
Press
MSL
hPa
Rain since
9am
mm
Dir  Spd
km/h
Gust
km/h
Spd
kts
Gust
kts
06/11:30pm 14.0 11.2 8.6 70 2.7 SSW 13 17 7 9 1016.0 1015.4 0.0
06/11:00pm 14.8 11.5 9.4 70 2.8 SSW 17 22 9 12 1015.8 1015.2 0.0
06/10:30pm 14.8 12.0 10.0 73 2.5 S 15 19 8 10 1015.8 1015.2 0.0
06/10:00pm 14.5 11.7 10.1 75 2.3 S 15 19 8 10 1015.5 1014.9 0.0
06/09:30pm 14.5 11.7 10.1 75 2.3 SSE 15 19 8 10 1015.2 1014.6 0.0
06/09:00pm 15.1 11.9 10.1 72 2.6 S 17 22 9 12 1015.0 1014.4 0.0
06/08:30pm 15.4 11.7 9.3 67 3.2 SSE 19 26 10 14 1014.7 1014.1 0.0
06/08:00pm 16.3 11.6 9.3 63 3.7 SSE 24 30 13 16 1014.4 1013.8 0.0
06/07:30pm 17.2 12.5 9.4 60 4.1 SSE 24 30 13 16 1014.1 1013.5 0.0
06/07:00pm 18.2 13.3 10.1 59 4.3 SSE 26 32 14 17 1013.9 1013.3 0.0
06/06:30pm 19.6 15.6 10.6 56 4.9 SSE 22 32 12 17 1013.5 1012.9 0.0
06/06:00pm 19.5 15.1 11.8 61 4.3 SE 26 33 14 18 1013.2 1012.6 0.0
06/05:30pm 19.9 15.9 11.7 59 4.6 SSE 24 33 13 18 1013.0 1012.4 0.0
06/05:00pm 20.5 16.4 11.4 56 5.1 SSE 24 33 13 18 1013.0 1012.4 0.0
06/04:30pm 20.9 16.1 11.5 55 5.3 SE 28 39 15 21 1012.8 1012.2 0.0
06/04:00pm 21.5 17.8 11.5 53 5.6 SSE 22 32 12 17 1012.6 1011.9 0.0
06/03:30pm 21.3 16.8 11.3 53 5.6 SSE 26 33 14 18 1012.8 1012.2 0.0
06/03:00pm 22.0 18.2 12.3 54 5.5 SSE 24 33 13 18 1012.8 1012.2 0.0
06/02:30pm 22.1 18.1 12.9 56 5.3 SSE 26 32 14 17 1012.7 1012.0 0.0
06/02:00pm 21.6 16.7 12.5 56 5.2 SSE 30 43 16 23 1012.7 1012.0 0.0
06/01:44pm 21.8 16.9 12.6 56 5.3 SSE 30 46 16 25 1012.5 1011.8 0.0
06/01:30pm 25.0 21.1 7.2 32 9.4 WSW 17 28 9 15 1012.4 1011.7 0.0
06/01:00pm 24.5 21.3 8.5 36 8.6 SW 15 28 8 15 1012.5 1011.8 0.0
06/12:30pm 24.3 22.3 10.2 41 7.8 SW 11 20 6 11 1012.9 1012.3 0.0
06/12:00pm 22.9 20.0 9.7 43 7.2 SW 15 22 8 12 1013.2 1012.6 0.0
06/11:30am 23.2 20.3 9.6 42 7.4 WSW 15 24 8 13 1013.3 1012.7 0.0
06/11:00am 22.2 19.7 9.7 45 6.8 S 13 17 7 9 1013.6 1013.0 0.0
06/10:30am 21.4 19.1 10.6 50 6.0 SSE 13 17 7 9 1013.9 1013.3 0.0
06/10:00am 20.2 18.3 11.7 58 4.7 S 13 20 7 11 1014.0 1013.4 0.0
06/09:30am 19.7 18.5 11.7 60 4.5 ESE 9 13 5 7 1013.8 1013.2 0.0
06/09:00am 18.7 17.8 12.7 68 3.4 E 9 15 5 8 1013.8 1013.2 0.0
06/08:30am 17.8 17.1 13.1 74 2.7 ESE 9 15 5 8 1013.5 1012.9 0.0
06/08:00am 15.8 14.5 12.5 81 1.8 ESE 11 15 6 8 1013.8 1013.2 0.0
06/07:30am 15.2 13.6 12.7 85 1.4 SSE 13 19 7 10 1013.6 1013.0 0.0
06/07:00am 15.0 13.8 12.9 87 1.2 SSE 11 13 6 7 1013.4 1012.8 0.0
06/06:30am 14.3 13.8 12.7 90 0.9 SE 7 9 4 5 1013.1 1012.5 0.0
06/06:00am 14.1 13.6 12.5 90 0.9 SE 7 9 4 5 1013.0 1012.4 0.0
06/05:30am 14.0 13.4 12.4 90 0.9 SSE 7 9 4 5 1012.8 1012.2 0.0
06/05:00am 13.9 13.2 12.1 89 1.0 ESE 7 9 4 5 1012.9 1012.3 0.0
06/04:30am 13.7 14.0 12.1 90 0.9 SE 2 9 1 5 1013.0 1012.4 0.0
06/04:00am 13.0 12.4 11.6 91 0.8 ENE 6 9 3 5 1013.0 1012.4 0.0
06/03:30am 12.1 10.6 10.7 91 0.7 ENE 9 11 5 6 1013.0 1012.4 0.0
06/03:00am 12.2 11.3 10.8 91 0.7 ENE 6 7 3 4 1013.3 1012.7 0.0
06/02:30am 13.1 12.4 11.3 89 1.0 S 6 7 3 4 1013.5 1012.9 0.0
06/02:00am 13.1 12.3 11.2 88 1.0 S 6 7 3 4 1013.7 1013.1 0.0
06/01:30am 13.8 13.3 12.2 90 0.9 S 6 7 3 4 1014.1 1013.5 0.0
06/01:00am 13.4 12.7 11.5 88 1.0 SE 6 7 3 4 1014.3 1013.7 0.0
06/12:30am 14.2 14.9 12.1 87 1.1 CALM 0 0 0 0 1014.7 1014.1 0.0
06/12:00am 14.5 13.9 12.2 86 1.3 SSE 7 7 4 4 1015.0 1014.4 0.0
 
Date/Time
CDT
Temp
°C
App
Temp
°C
Dew
Point
°C
Rel
Hum
%
Delta-T
°C
Wind Press
QNH
hPa
Press
MSL
hPa
Rain since
9am
mm
Dir  Spd
km/h
Gust
km/h
Spd
kts
Gust
kts
05/11:30pm 14.8 14.3 12.1 84 1.5 ESE 6 9 3 5 1015.6 1015.0 0.0
05/11:00pm 15.3 14.4 12.6 84 1.5 SE 9 13 5 7 1015.7 1015.1 0.0
05/10:30pm 15.6 13.5 12.5 82 1.7 SSE 15 20 8 11 1015.4 1014.8 0.0
05/10:00pm 15.8 13.4 12.7 82 1.7 SSE 17 20 9 11 1015.4 1014.8 0.0
05/09:30pm 16.1 13.7 12.5 79 2.0 S 17 20 9 11 1015.2 1014.6 0.0
05/09:00pm 16.5 13.9 12.1 75 2.4 SE 17 20 9 11 1015.5 1014.9 0.0
05/08:30pm 17.1 15.1 11.4 69 3.1 SE 13 19 7 10 1015.5 1014.9 0.0
05/08:00pm 17.3 14.4 10.9 66 3.5 SE 17 20 9 11 1015.3 1014.7 0.0
05/07:30pm 17.8 14.8 10.7 63 3.8 SE 17 20 9 11 1015.3 1014.7 0.0
05/07:00pm 18.0 15.5 11.1 64 3.8 SE 15 19 8 10 1015.1 1014.5 0.0
05/06:30pm 18.5 15.5 10.6 60 4.3 SE 17 24 9 13 1014.8 1014.2 0.0
05/06:00pm 19.1 15.6 10.1 56 4.9 SE 19 24 10 13 1015.0 1014.4 0.0
05/05:30pm 19.6 15.6 10.3 55 5.0 SSE 22 32 12 17 1015.0 1014.4 0.0
05/05:00pm 21.2 17.5 10.1 49 6.1 SSE 20 33 11 18 1015.2 1014.6 0.0
05/04:30pm 20.8 17.8 9.1 47 6.2 SE 15 26 8 14 1015.5 1014.9 0.0
05/04:00pm 20.7 17.4 9.6 49 6.0 SE 17 26 9 14 1015.8 1015.2 0.0
05/03:30pm 20.7 17.0 9.6 49 6.0 SSE 19 28 10 15 1015.9 1015.3 0.0
05/03:00pm 21.2 17.8 10.7 51 5.8 SSE 19 28 10 15 1016.3 1015.7 0.0
05/02:30pm 21.1 18.9 10.9 52 5.6 SSE 13 20 7 11 1016.7 1016.1 0.0
05/02:00pm 21.8 18.1 10.3 48 6.3 SE 20 30 11 16 1017.0 1016.4 0.0
05/01:30pm 21.3 16.8 10.2 49 6.1 SE 24 33 13 18 1017.2 1016.6 0.0
05/01:00pm 21.9 18.3 10.4 48 6.3 SE 20 32 11 17 1017.5 1016.9 0.0
05/12:30pm 21.7 18.2 8.6 43 7.0 SE 17 24 9 13 1017.6 1017.1 0.0
05/12:00pm 21.8 18.4 9.3 45 6.7 ESE 17 28 9 15 1018.1 1017.5 0.0
05/11:30am 20.8 18.0 10.0 50 5.9 E 15 20 8 11 1018.6 1018.0 0.0
05/11:00am 19.6 16.4 10.0 54 5.2 ESE 17 26 9 14 1018.9 1018.3 0.0
05/10:30am 18.7 15.3 10.5 59 4.4 E 19 28 10 15 1019.1 1018.5 0.0
05/10:00am 17.6 13.7 10.9 65 3.6 E 22 30 12 16 1019.3 1018.7 0.0
05/09:30am 17.0 13.0 10.6 66 3.4 E 22 30 12 16 1019.9 1019.3 0.0
05/09:00am 15.9 11.2 10.7 71 2.8 ESE 26 32 14 17 1020.2 1019.6 0.0
05/08:30am 15.6 11.3 10.6 72 2.7 ESE 24 30 13 16 1020.4 1019.8 0.0
05/08:00am 15.2 10.8 10.4 73 2.5 ESE 24 32 13 17 1020.5 1019.9 0.0
05/07:30am 14.9 10.5 10.3 74 2.4 ESE 24 32 13 17 1020.4 1019.8 0.0
05/07:00am 14.5 10.5 10.3 76 2.2 ESE 22 28 12 15 1020.3 1019.7 0.0
05/06:30am 13.9 9.4 10.1 78 2.0 ESE 24 32 13 17 1020.0 1019.4 0.0
05/06:00am 14.0 9.9 10.0 77 2.1 ESE 22 30 12 16 1019.7 1019.1 0.0
05/05:30am 14.0 9.8 9.8 76 2.2 ESE 22 28 12 15 1019.6 1019.0 0.0
05/05:00am 14.0 9.1 9.8 76 2.2 ESE 26 33 14 18 1019.3 1018.7 0.0
05/04:30am 14.1 9.7 10.3 78 2.0 ESE 24 32 13 17 1019.3 1018.7 0.0
05/04:00am 14.1 10.4 10.3 78 2.0 ESE 20 28 11 15 1019.4 1018.8 0.0
05/03:30am 14.1 10.0 10.1 77 2.1 ESE 22 32 12 17 1019.4 1018.8 0.0
05/03:00am 14.0 9.5 10.2 78 2.0 ESE 24 30 13 16 1019.4 1018.8 0.0
05/02:30am 14.0 9.9 10.2 78 2.0 ESE 22 30 12 16 1019.4 1018.8 0.0
05/02:00am 14.3 10.9 10.5 78 2.0 ESE 19 24 10 13 1019.9 1019.3 0.0
05/01:30am 14.8 10.5 10.6 76 2.2 ESE 24 33 13 18 1020.1 1019.5 0.0
05/01:00am 14.8 11.5 11.6 81 1.7 SE 20 26 11 14 1020.4 1019.8 0.0
05/12:30am 14.0 12.8 11.5 85 1.3 SE 9 13 5 7 1020.9 1020.3 0.0
05/12:00am 13.6 12.3 11.1 85 1.3 ESE 9 13 5 7 1021.1 1020.5 0.0
 
Date/Time
CDT
Temp
°C
App
Temp
°C
Dew
Point
°C
Rel
Hum
%
Delta-T
°C
Wind Press
QNH
hPa
Press
MSL
hPa
Rain since
9am
mm
Dir  Spd
km/h
Gust
km/h
Spd
kts
Gust
kts
04/11:30pm 13.4 11.5 10.6 83 1.5 ESE 11 13 6 7 1021.4 1020.8 0.0
04/11:00pm 13.8 12.9 10.8 82 1.6 E 6 7 3 4 1022.0 1021.4 0.0
04/10:30pm 13.2 12.9 10.2 82 1.6 SE 2 7 1 4 1022.3 1021.7 0.0
04/10:00pm 13.2 12.1 10.0 81 1.7 SE 6 7 3 4 1022.2 1021.6 0.0
04/09:30pm 13.6 12.0 10.2 80 1.8 SE 9 15 5 8 1022.1 1021.5 0.0
04/09:00pm 14.2 11.9 10.4 78 2.0 SSE 13 20 7 11 1022.1 1021.5 0.0
04/08:30pm 14.7 11.5 10.1 74 2.4 SSE 17 20 9 11 1022.1 1021.5 0.0
04/08:00pm 15.7 12.0 10.0 69 3.0 SSE 20 26 11 14 1022.0 1021.4 0.0
04/07:30pm 16.8 13.1 9.5 62 3.8 SSE 19 24 10 13 1021.7 1021.1 0.0
04/07:00pm 17.2 12.9 9.4 60 4.1 SSE 22 32 12 17 1021.2 1020.6 0.0
04/06:30pm 18.0 13.9 8.8 55 4.8 SE 20 32 11 17 1021.2 1020.6 0.0
04/06:00pm 18.6 13.7 8.3 51 5.3 SE 24 33 13 18 1021.2 1020.6 0.0
04/05:30pm 19.2 14.6 8.2 49 5.7 SE 22 32 12 17 1021.1 1020.5 0.0
04/05:00pm 19.3 14.3 8.0 48 5.9 SE 24 33 13 18 1021.4 1020.8 0.0
04/04:30pm 19.1 14.1 8.1 49 5.7 SE 24 35 13 19 1021.4 1020.8 0.0
04/04:00pm 19.4 14.9 8.7 50 5.6 SSE 22 39 12 21 1021.9 1021.3 0.0
04/03:30pm 20.0 15.1 8.4 47 6.1 SE 24 35 13 19 1022.3 1021.7 0.0
04/03:00pm 19.1 14.1 8.1 49 5.7 SE 24 30 13 16 1022.3 1021.7 0.0
04/02:30pm 18.5 12.9 7.0 47 5.8 ESE 26 35 14 19 1022.6 1022.1 0.0
04/02:00pm 18.9 13.3 7.0 46 6.0 SE 26 43 14 23 1022.8 1022.3 0.0
04/01:30pm 18.4 12.9 7.5 49 5.5 SE 26 37 14 20 1023.3 1022.8 0.0
04/01:00pm 18.1 11.9 7.8 51 5.3 SE 30 41 16 22 1023.5 1023.0 0.0
04/12:30pm 17.2 11.4 7.8 54 4.8 SE 28 39 15 21 1023.7 1023.2 0.0
04/12:06pm 17.4 11.1 7.5 52 5.0 SE 30 48 16 26 1023.4 1022.9 0.0
04/12:00pm 17.8 11.5 7.5 51 5.2 SE 30 37 16 20 1023.6 1023.1 0.0
04/11:30am 17.2 11.7 7.5 53 4.9 SE 26 39 14 21 1023.8 1023.3 0.0
04/11:00am 17.5 12.1 7.8 53 5.0 SE 26 35 14 19 1023.6 1023.1 0.0
04/10:30am 17.4 12.6 8.8 57 4.5 SE 24 33 13 18 1023.8 1023.3 0.0
04/10:00am 16.1 10.3 7.8 58 4.2 SE 28 35 15 19 1023.7 1023.2 0.0
04/09:30am 15.3 9.8 7.6 60 3.8 SE 26 35 14 19 1023.7 1023.2 0.0
04/09:00am 14.7 9.2 7.7 63 3.5 ESE 26 37 14 20 1023.6 1023.1 0.0
04/08:30am 14.6 9.1 7.6 63 3.5 SE 26 33 14 18 1023.6 1023.1 0.0
04/08:00am 14.7 9.4 8.6 67 3.1 SE 26 32 14 17 1023.3 1022.8 0.0
04/07:30am 13.7 7.8 7.7 67 3.0 SE 28 35 15 19 1023.1 1022.6 0.0

Other formats

Comma delimited format used in spreadsheet applications
http://www.bom.gov.au/fwo/IDS60801/IDS60801.94662.axf

JavaScript Object Notation format (JSON) in row-major order
http://www.bom.gov.au/fwo/IDS60801/IDS60801.94662.json

Data quality

Most of these data are generated automatically and are frequently updated. Quality checks on data are not normally performed. It is possible for incorrect values to appear. Refer to information at About Latest Weather Observations and please check the disclaimer before using these data.